RJNF(METAR)
12/11 16:00
RJNF 110700Z 27002KT 9999 FEW030 OVCXXX 07/02 Q1023 RMK A3022=
戻る
トップページへ戻る
IMOC Co,.Ltd.